YM Pluto — 9HA2098 — position and weather

sailwx.info

Track history (hours):
 
Tides and Currents Weather Stations Pressure Air Temp Water Temp Dewpoint Dewpoint Depression Visibility Wind Speed Wind Dir Waves Ship Positions

YM Pluto

Last reported at 2018-Feb-21 01:30 UTC. Time now 2018-Feb-21 01:57 UTC.
Position N 38°16' W 010°04'.

Length 119 m; draft 6.7 m.

Type: Ship (hazmat cat B). MMSI: 249957000.

Date/timePositionNaut miles runAvg speedWind from/ knotsBaromVisibWave heightAir tempDewpointWater temp
2018-Feb-21 01:30N 38°16' W 010°04'612.1
2018-Feb-21 01:00N 38°22' W 010°06'612.3
2018-Feb-21 00:30N 38°28' W 010°08'612.0
2018-Feb-21 00:00N 38°33' W 010°10'611.6
2018-Feb-20 23:30N 38°39' W 010°11'611.2
2018-Feb-20 23:01N 38°45' W 010°12'611.4
2018-Feb-20 22:30N 38°50' W 010°12'611.6
2018-Feb-20 22:00N 38°56' W 010°12'612.3
2018-Feb-20 21:30N 39°02' W 010°12'911.9
2018-Feb-20 20:47N 39°11' W 010°12'1411.2
2018-Feb-20 19:34N 39°25' W 010°12'111.1
2018-Feb-20 19:30N 39°25' W 010°12'  
2018-Feb-17 22:56N 49°44' W 003°37'610.3
2018-Feb-17 22:19N 49°47' W 003°28'3 9.7
2018-Feb-17 22:00N 49°49' W 003°24'8 9.3
2018-Feb-17 21:11N 49°53' W 003°14'2 8.8
2018-Feb-17 21:00N 49°53' W 003°12'4 8.8
2018-Feb-17 20:30N 49°55' W 003°06'4 8.6
2018-Feb-17 20:00N 49°58' W 002°60'4 8.6
2018-Feb-17 19:30N 49°60' W 002°54'5 9.0
2018-Feb-17 19:00N 50°01' W 002°47'5 9.5
2018-Feb-17 18:27N 50°02' W 002°39'510.2
2018-Feb-17 17:59N 50°04' W 002°32'510.9
2018-Feb-17 17:30N 50°05' W 002°24'611.8
2018-Feb-17 16:59N 50°06' W 002°15'612.9
2018-Feb-17 16:30N 50°08' W 002°06'713.6
2018-Feb-17 16:00N 50°10' W 001°55'714.2
2018-Feb-17 15:30N 50°12' W 001°45'2414.2
2018-Feb-17 13:48N 50°18' W 001°08'413.3
2018-Feb-17 13:30N 50°19' W 001°02'712.6
2018-Feb-17 12:59N 50°21' W 000°52'1011.0
2018-Feb-17 12:07N 50°24' W 000°38'710.1
2018-Feb-17 11:22N 50°26' W 000°27'3 9.6
2018-Feb-17 11:01N 50°26' W 000°21'5 9.2
2018-Feb-17 10:30N 50°28' W 000°14'5 9.0
2018-Feb-17 10:00N 50°29' W 000°07'5 8.8
2018-Feb-17 09:29N 50°30' W 000°00'4 9.1
2018-Feb-17 09:00N 50°32' E 000°06'5 9.5
2018-Feb-17 08:30N 50°33' E 000°13'510.1
2018-Feb-17 08:00N 50°35' E 000°20'611.1
2018-Feb-17 07:30N 50°36' E 000°29'611.8
2018-Feb-17 07:00N 50°38' E 000°38'612.5
2018-Feb-17 06:31N 50°42' E 000°45'612.8
2018-Feb-17 06:00N 50°46' E 000°54'612.8
2018-Feb-17 05:30N 50°49' E 001°02'612.6
2018-Feb-17 05:00N 50°53' E 001°10'611.8
2018-Feb-17 04:30N 50°57' E 001°17'611.4
2018-Feb-17 04:00N 51°02' E 001°22'510.6
2018-Feb-17 03:30N 51°05' E 001°28'5 9.6
2018-Feb-17 03:01N 51°08' E 001°35'5 9.0
2018-Feb-17 02:30N 51°11' E 001°40'4 8.9
2018-Feb-17 02:00N 51°14' E 001°46'5 9.1
2018-Feb-17 01:30N 51°18' E 001°49'5 9.7
2018-Feb-17 01:01N 51°22' E 001°51'510.2
2018-Feb-17 00:30N 51°27' E 001°55'510.9
2018-Feb-17 00:00N 51°31' E 002°01'611.9
2018-Feb-16 23:30N 51°35' E 002°07'612.3
2018-Feb-16 23:00N 51°40' E 002°14'713.0
2018-Feb-16 22:30N 51°45' E 002°21'1213.2
2018-Feb-16 21:33N 51°54' E 002°35'113.4
2018-Feb-16 21:29N 51°54' E 002°36'1711.8
2018-Feb-16 20:02N 52°03' E 003°00'112.0
2018-Feb-16 19:59N 52°03' E 003°01'611.9
2018-Feb-16 19:30N 52°03' E 003°10'1311.8
2018-Feb-16 18:25N 52°04' E 003°31'511.4
2018-Feb-16 18:00N 52°03' E 003°39'611.2
2018-Feb-16 17:30N 52°03' E 003°48'510.4
2018-Feb-16 17:01N 52°02' E 003°56'5 9.7
2018-Feb-16 16:30N 51°59' E 004°03'511.0
2018-Feb-16 16:00N 51°57' E 004°11'510.4
2018-Feb-16 15:30N 51°54' E 004°18'4 7.6
2018-Feb-16 15:00N 51°51' E 004°22'4 9.0
2018-Feb-16 14:31N 51°50' E 004°29'4 8.2
2018-Feb-16 14:01N 51°48' E 004°35'4 8.2
2018-Feb-16 13:30N 51°45' E 004°38'4 8.1
2018-Feb-16 13:01N 51°42' E 004°34'0 0.2
2018-Feb-16 12:14N 51°42' E 004°34'0 0.0
2018-Feb-16 10:23N 51°42' E 004°34'0 0.0
2018-Feb-16 09:59N 51°42' E 004°34'0 0.0
2018-Feb-16 07:05N 51°42' E 004°34'0 0.0
2018-Feb-16 06:59N 51°42' E 004°34'0 0.0
2018-Feb-16 06:17N 51°42' E 004°34'0 0.0
2018-Feb-16 05:11N 51°42' E 004°34'0 0.0
2018-Feb-16 03:47N 51°42' E 004°34'0 0.0
2018-Feb-16 03:26N 51°42' E 004°34'0 0.0
2018-Feb-16 02:05N 51°42' E 004°34'0 0.0
2018-Feb-16 01:35N 51°42' E 004°34'0 0.0
2018-Feb-16 00:38N 51°42' E 004°34'0 0.0
2018-Feb-15 23:17N 51°42' E 004°34'0 0.0
2018-Feb-15 22:35N 51°42' E 004°34'0 0.0
2018-Feb-15 22:17N 51°42' E 004°34'0 0.0
2018-Feb-15 21:08N 51°42' E 004°34'0 0.0
2018-Feb-15 20:59N 51°42' E 004°34'0 0.0
2018-Feb-15 20:05N 51°42' E 004°34'0 0.0
2018-Feb-15 19:59N 51°42' E 004°34'0 0.0
2018-Feb-15 19:29N 51°42' E 004°34'0 0.0
2018-Feb-15 18:35N 51°42' E 004°34'0 0.0
2018-Feb-15 18:05N 51°42' E 004°34'0 0.0
2018-Feb-15 13:56N 51°42' E 004°34'0 0.0
2018-Feb-15 13:26N 51°42' E 004°34'0 0.0
2018-Feb-15 10:02N 51°42' E 004°34'0 0.0
2018-Feb-15 09:56N 51°42' E 004°34'0 0.0
2018-Feb-15 09:30N 51°42' E 004°34'1 2.9
2018-Feb-15 09:00N 51°42' E 004°36'4 8.6
2018-Feb-15 08:30N 51°46' E 004°38'4 8.0
2018-Feb-15 08:00N 51°49' E 004°34'4 7.5
2018-Feb-15 07:30N 51°50' E 004°28'4 8.8
2018-Feb-15 07:00N 51°51' E 004°21'4 7.7
2018-Feb-15 06:30N 51°54' E 004°17'4 8.7
2018-Feb-15 06:00N 51°57' E 004°11'4 8.1
2018-Feb-15 05:30N 51°59' E 004°05'5 9.5
2018-Feb-15 05:00N 52°00' E 003°58'612.1
2018-Feb-15 04:30N 51°60' E 003°48'510.5
2018-Feb-15 04:00N 51°58' E 003°40'4 0.5
2018-Feb-14 19:25N 51°56' E 003°34'16 8.6
2018-Feb-14 17:32N 51°53' E 003°08'110.5
2018-Feb-14 17:29N 51°53' E 003°07'1510.8
2018-Feb-14 16:07N 51°48' E 002°45'210.9
2018-Feb-14 15:56N 51°47' E 002°43'511.2
2018-Feb-14 15:30N 51°44' E 002°36'611.8
2018-Feb-14 14:58N 51°40' E 002°29'612.1
2018-Feb-14 14:30N 51°35' E 002°23'612.4
2018-Feb-14 14:00N 51°31' E 002°16'612.7
2018-Feb-14 13:30N 51°26' E 002°10'611.9
2018-Feb-14 13:01N 51°20' E 002°07'611.9
2018-Feb-14 12:30N 51°15' E 002°06'713.3
2018-Feb-14 12:01N 51°11' E 001°57'713.8
2018-Feb-14 11:30N 51°07' E 001°48'815.4
2018-Feb-14 11:00N 51°02' E 001°39'815.5
2018-Feb-14 10:30N 50°56' E 001°31'714.5
2018-Feb-14 10:00N 50°50' E 001°25'714.4
2018-Feb-14 09:30N 50°43' E 001°23'813.6
2018-Feb-14 08:52N 50°37' E 001°13'5612.8
2018-Feb-14 04:28N 50°16' W 000°09'511.4
2018-Feb-14 04:01N 50°14' W 000°17'611.0
2018-Feb-14 03:28N 50°13' W 000°26'510.6
2018-Feb-14 03:00N 50°11' W 000°33'510.3
2018-Feb-14 02:28N 50°09' W 000°41'8 9.2
2018-Feb-14 01:36N 50°03' W 000°48'311.5
2018-Feb-14 01:21N 50°00' W 000°48'411.7
2018-Feb-14 01:00N 49°56' W 000°48'611.6
2018-Feb-14 00:30N 49°50' W 000°48'611.5
2018-Feb-14 00:01N 49°45' W 000°45'612.4
2018-Feb-13 23:31N 49°42' W 000°37'611.7
2018-Feb-13 23:01N 49°38' W 000°29'510.9
2018-Feb-13 22:31N 49°35' W 000°22'510.4
2018-Feb-13 22:01N 49°33' W 000°15'510.1
2018-Feb-13 21:31N 49°30' W 000°09'5 9.8
2018-Feb-13 21:01N 49°28' W 000°02'5 9.7
2018-Feb-13 20:31N 49°26' E 000°05'510.8
2018-Feb-13 20:00N 49°26' E 000°13'510.4
2018-Feb-13 19:30N 49°26' E 000°21'5 9.9
2018-Feb-13 19:00N 49°28' E 000°28'3 5.8
2018-Feb-13 18:30N 49°28' E 000°32'0 0.1
2018-Feb-13 17:58N 49°28' E 000°33'0 0.0
2018-Feb-13 17:28N 49°28' E 000°33'0 0.0
2018-Feb-13 16:58N 49°28' E 000°33'0 0.0
2018-Feb-13 16:28N 49°28' E 000°33'0 0.0
2018-Feb-13 15:58N 49°28' E 000°33'0 0.0
2018-Feb-13 15:28N 49°28' E 000°33'0 0.0
2018-Feb-13 14:58N 49°28' E 000°33'0 0.0
2018-Feb-13 14:28N 49°28' E 000°33'0 0.0
2018-Feb-13 13:58N 49°28' E 000°33'0 0.0
2018-Feb-13 13:28N 49°28' E 000°33'0 0.0
2018-Feb-13 12:58N 49°28' E 000°33'0 0.0
2018-Feb-13 12:28N 49°28' E 000°33'0 0.0
2018-Feb-13 11:58N 49°28' E 000°33'0 0.0
2018-Feb-13 11:28N 49°28' E 000°33'0 0.0
2018-Feb-13 10:58N 49°28' E 000°33'0 0.0
2018-Feb-13 10:28N 49°28' E 000°33'0 0.0
2018-Feb-13 09:58N 49°28' E 000°33'0 0.0
2018-Feb-13 09:28N 49°28' E 000°33'0 0.0
2018-Feb-13 08:58N 49°28' E 000°33'0 0.0
2018-Feb-13 08:28N 49°28' E 000°33'0 0.0
2018-Feb-13 07:58N 49°28' E 000°33'0 0.0
2018-Feb-13 07:28N 49°28' E 000°33'0 0.0
2018-Feb-13 06:58N 49°28' E 000°33'0 0.0
2018-Feb-13 06:28N 49°28' E 000°33'0 0.0
2018-Feb-13 05:58N 49°28' E 000°33'0 0.0
2018-Feb-13 05:28N 49°28' E 000°33'0 0.0
2018-Feb-13 04:58N 49°28' E 000°33'0 0.0
2018-Feb-13 04:28N 49°28' E 000°33'0 0.0
2018-Feb-13 03:55N 49°28' E 000°33'0 0.0
2018-Feb-13 03:25N 49°28' E 000°33'0 0.0
2018-Feb-13 02:55N 49°28' E 000°33'0 0.0
2018-Feb-13 02:28N 49°28' E 000°33'0 0.0
2018-Feb-13 01:58N 49°28' E 000°33'0 0.0
2018-Feb-13 01:28N 49°28' E 000°33'0 0.0
2018-Feb-13 00:58N 49°28' E 000°33'0 0.0
2018-Feb-13 00:28N 49°28' E 000°33'0 0.0
2018-Feb-12 23:58N 49°28' E 000°33'0 0.0
2018-Feb-12 23:28N 49°28' E 000°33'0 0.0
2018-Feb-12 22:58N 49°28' E 000°33'0 0.0
2018-Feb-12 22:28N 49°28' E 000°33'0 0.0
2018-Feb-12 21:58N 49°28' E 000°33'0 0.0
2018-Feb-12 21:28N 49°28' E 000°33'0 0.0
2018-Feb-12 20:58N 49°28' E 000°33'0 0.0
2018-Feb-12 20:28N 49°28' E 000°33'0 0.0
2018-Feb-12 19:58N 49°28' E 000°33'0 0.0
2018-Feb-12 19:28N 49°28' E 000°33'0 0.0
2018-Feb-12 18:58N 49°28' E 000°33'0 0.0
2018-Feb-12 18:28N 49°28' E 000°33'0 0.5
2018-Feb-12 18:00N 49°28' E 000°33'3 6.1
2018-Feb-12 17:30N 49°29' E 000°28'612.4
2018-Feb-12 17:00N 49°26' E 000°19'611.7
2018-Feb-12 16:31N 49°26' E 000°10'611.7
2018-Feb-12 16:00N 49°27' E 000°02'4 8.3
2018-Feb-12 15:30N 49°28' W 000°05'1 1.3
2018-Feb-12 15:00N 49°28' W 000°06'0 0.1
2018-Feb-12 14:30N 49°28' W 000°06'0 0.0
2018-Feb-12 14:00N 49°28' W 000°06'0 0.0
2018-Feb-12 13:30N 49°28' W 000°06'0 0.3
2018-Feb-12 13:00N 49°28' W 000°06'0 0.0
2018-Feb-12 12:30N 49°28' W 000°06'0 0.1
2018-Feb-12 12:00N 49°28' W 000°06'0 0.1
2018-Feb-12 11:30N 49°28' W 000°06'0 0.2
2018-Feb-12 11:00N 49°28' W 000°06'0 0.2
2018-Feb-12 10:30N 49°28' W 000°06'2 4.9
2018-Feb-12 10:01N 49°30' W 000°08'611.7
2018-Feb-12 09:31N 49°31' W 000°17'612.1
2018-Feb-12 09:00N 49°34' W 000°25'612.3
2018-Feb-12 08:30N 49°37' W 000°33'612.5
2018-Feb-12 08:00N 49°40' W 000°42'612.6
2018-Feb-12 07:30N 49°43' W 000°50'612.5
2018-Feb-12 07:00N 49°46' W 000°59'612.7
2018-Feb-12 06:30N 49°50' W 001°07'713.0
2018-Feb-12 06:01N 49°53' W 001°16'612.9
2018-Feb-12 05:30N 49°54' W 001°26'713.2
2018-Feb-12 05:01N 49°54' W 001°36'713.1
2018-Feb-12 04:31N 49°54' W 001°46'612.9
2018-Feb-12 04:00N 49°54' W 001°56'612.1
2018-Feb-12 03:31N 49°54' W 002°05'611.3
2018-Feb-12 03:00N 49°54' W 002°14'510.9
2018-Feb-12 02:30N 49°53' W 002°23'510.7
2018-Feb-12 02:00N 49°53' W 002°31'510.3
2018-Feb-12 01:30N 49°51' W 002°39'510.2
2018-Feb-12 01:00N 49°50' W 002°46'102 9.8
2018-Feb-11 14:38N 49°01' W 005°03'410.4
2018-Feb-11 14:14N 48°58' W 005°08'210.3
2018-Feb-11 14:01N 48°57' W 005°12'610.3
2018-Feb-11 13:26N 48°54' W 005°19'510.5
2018-Feb-11 13:00N 48°52' W 005°25'510.7
2018-Feb-11 12:30N 48°48' W 005°31'510.3
2018-Feb-11 11:59N 48°44' W 005°37'510.2
2018-Feb-11 11:29N 48°41' W 005°42'5 9.6
2018-Feb-11 11:00N 48°37' W 005°46'5 9.5
2018-Feb-11 10:26N 48°32' W 005°50'7 9.5
2018-Feb-11 09:43N 48°26' W 005°55'8 9.7
2018-Feb-11 08:52N 48°19' W 006°01'  
Track history (hours):
 
Tides and Currents Weather Stations Pressure Air Temp Water Temp Dewpoint Dewpoint Depression Visibility Wind Speed Wind Dir Waves Ship Positions

YM Pluto

Last reported at 2018-Feb-21 01:30 UTC. Time now 2018-Feb-21 01:57 UTC.
Position N 38°16' W 010°04'.

Length 119 m; draft 6.7 m.

Type: Ship (hazmat cat B). MMSI: 249957000.

Date/timePositionNaut miles runAvg speedWind from/ knotsBaromVisibWave heightAir tempDewpointWater temp
2018-Feb-21 01:30N 38°16' W 010°04'612.1
2018-Feb-21 01:00N 38°22' W 010°06'612.3
2018-Feb-21 00:30N 38°28' W 010°08'612.0
2018-Feb-21 00:00N 38°33' W 010°10'611.6
2018-Feb-20 23:30N 38°39' W 010°11'611.2
2018-Feb-20 23:01N 38°45' W 010°12'611.4
2018-Feb-20 22:30N 38°50' W 010°12'611.6
2018-Feb-20 22:00N 38°56' W 010°12'612.3
2018-Feb-20 21:30N 39°02' W 010°12'911.9
2018-Feb-20 20:47N 39°11' W 010°12'1411.2
2018-Feb-20 19:34N 39°25' W 010°12'111.1
2018-Feb-20 19:30N 39°25' W 010°12'  
2018-Feb-17 22:56N 49°44' W 003°37'610.3
2018-Feb-17 22:19N 49°47' W 003°28'3 9.7
2018-Feb-17 22:00N 49°49' W 003°24'8 9.3
2018-Feb-17 21:11N 49°53' W 003°14'2 8.8
2018-Feb-17 21:00N 49°53' W 003°12'4 8.8
2018-Feb-17 20:30N 49°55' W 003°06'4 8.6
2018-Feb-17 20:00N 49°58' W 002°60'4 8.6
2018-Feb-17 19:30N 49°60' W 002°54'5 9.0
2018-Feb-17 19:00N 50°01' W 002°47'5 9.5
2018-Feb-17 18:27N 50°02' W 002°39'510.2
2018-Feb-17 17:59N 50°04' W 002°32'510.9
2018-Feb-17 17:30N 50°05' W 002°24'611.8
2018-Feb-17 16:59N 50°06' W 002°15'612.9
2018-Feb-17 16:30N 50°08' W 002°06'713.6
2018-Feb-17 16:00N 50°10' W 001°55'714.2
2018-Feb-17 15:30N 50°12' W 001°45'2414.2
2018-Feb-17 13:48N 50°18' W 001°08'413.3
2018-Feb-17 13:30N 50°19' W 001°02'712.6
2018-Feb-17 12:59N 50°21' W 000°52'1011.0
2018-Feb-17 12:07N 50°24' W 000°38'710.1
2018-Feb-17 11:22N 50°26' W 000°27'3 9.6
2018-Feb-17 11:01N 50°26' W 000°21'5 9.2
2018-Feb-17 10:30N 50°28' W 000°14'5 9.0
2018-Feb-17 10:00N 50°29' W 000°07'5 8.8
2018-Feb-17 09:29N 50°30' W 000°00'4 9.1
2018-Feb-17 09:00N 50°32' E 000°06'5 9.5
2018-Feb-17 08:30N 50°33' E 000°13'510.1
2018-Feb-17 08:00N 50°35' E 000°20'611.1
2018-Feb-17 07:30N 50°36' E 000°29'611.8
2018-Feb-17 07:00N 50°38' E 000°38'612.5
2018-Feb-17 06:31N 50°42' E 000°45'612.8
2018-Feb-17 06:00N 50°46' E 000°54'612.8
2018-Feb-17 05:30N 50°49' E 001°02'612.6
2018-Feb-17 05:00N 50°53' E 001°10'611.8
2018-Feb-17 04:30N 50°57' E 001°17'611.4
2018-Feb-17 04:00N 51°02' E 001°22'510.6
2018-Feb-17 03:30N 51°05' E 001°28'5 9.6
2018-Feb-17 03:01N 51°08' E 001°35'5 9.0
2018-Feb-17 02:30N 51°11' E 001°40'4 8.9
2018-Feb-17 02:00N 51°14' E 001°46'5 9.1
2018-Feb-17 01:30N 51°18' E 001°49'5 9.7
2018-Feb-17 01:01N 51°22' E 001°51'510.2
2018-Feb-17 00:30N 51°27' E 001°55'510.9
2018-Feb-17 00:00N 51°31' E 002°01'611.9
2018-Feb-16 23:30N 51°35' E 002°07'612.3
2018-Feb-16 23:00N 51°40' E 002°14'713.0
2018-Feb-16 22:30N 51°45' E 002°21'1213.2
2018-Feb-16 21:33N 51°54' E 002°35'113.4
2018-Feb-16 21:29N 51°54' E 002°36'1711.8
2018-Feb-16 20:02N 52°03' E 003°00'112.0
2018-Feb-16 19:59N 52°03' E 003°01'611.9
2018-Feb-16 19:30N 52°03' E 003°10'1311.8
2018-Feb-16 18:25N 52°04' E 003°31'511.4
2018-Feb-16 18:00N 52°03' E 003°39'611.2
2018-Feb-16 17:30N 52°03' E 003°48'510.4
2018-Feb-16 17:01N 52°02' E 003°56'5 9.7
2018-Feb-16 16:30N 51°59' E 004°03'511.0
2018-Feb-16 16:00N 51°57' E 004°11'510.4
2018-Feb-16 15:30N 51°54' E 004°18'4 7.6
2018-Feb-16 15:00N 51°51' E 004°22'4 9.0
2018-Feb-16 14:31N 51°50' E 004°29'4 8.2
2018-Feb-16 14:01N 51°48' E 004°35'4 8.2
2018-Feb-16 13:30N 51°45' E 004°38'4 8.1
2018-Feb-16 13:01N 51°42' E 004°34'0 0.2
2018-Feb-16 12:14N 51°42' E 004°34'0 0.0
2018-Feb-16 10:23N 51°42' E 004°34'0 0.0
2018-Feb-16 09:59N 51°42' E 004°34'0 0.0
2018-Feb-16 07:05N 51°42' E 004°34'0 0.0
2018-Feb-16 06:59N 51°42' E 004°34'0 0.0
2018-Feb-16 06:17N 51°42' E 004°34'0 0.0
2018-Feb-16 05:11N 51°42' E 004°34'0 0.0
2018-Feb-16 03:47N 51°42' E 004°34'0 0.0
2018-Feb-16 03:26N 51°42' E 004°34'0 0.0
2018-Feb-16 02:05N 51°42' E 004°34'0 0.0
2018-Feb-16 01:35N 51°42' E 004°34'0 0.0
2018-Feb-16 00:38N 51°42' E 004°34'0 0.0
2018-Feb-15 23:17N 51°42' E 004°34'0 0.0
2018-Feb-15 22:35N 51°42' E 004°34'0 0.0
2018-Feb-15 22:17N 51°42' E 004°34'0 0.0
2018-Feb-15 21:08N 51°42' E 004°34'0 0.0
2018-Feb-15 20:59N 51°42' E 004°34'0 0.0
2018-Feb-15 20:05N 51°42' E 004°34'0 0.0
2018-Feb-15 19:59N 51°42' E 004°34'0 0.0
2018-Feb-15 19:29N 51°42' E 004°34'0 0.0
2018-Feb-15 18:35N 51°42' E 004°34'0 0.0
2018-Feb-15 18:05N 51°42' E 004°34'0 0.0
2018-Feb-15 13:56N 51°42' E 004°34'0 0.0
2018-Feb-15 13:26N 51°42' E 004°34'0 0.0
2018-Feb-15 10:02N 51°42' E 004°34'0 0.0
2018-Feb-15 09:56N 51°42' E 004°34'0 0.0
2018-Feb-15 09:30N 51°42' E 004°34'1 2.9
2018-Feb-15 09:00N 51°42' E 004°36'4 8.6
2018-Feb-15 08:30N 51°46' E 004°38'4 8.0
2018-Feb-15 08:00N 51°49' E 004°34'4 7.5
2018-Feb-15 07:30N 51°50' E 004°28'4 8.8
2018-Feb-15 07:00N 51°51' E 004°21'4 7.7
2018-Feb-15 06:30N 51°54' E 004°17'4 8.7
2018-Feb-15 06:00N 51°57' E 004°11'4 8.1
2018-Feb-15 05:30N 51°59' E 004°05'5 9.5
2018-Feb-15 05:00N 52°00' E 003°58'612.1
2018-Feb-15 04:30N 51°60' E 003°48'510.5
2018-Feb-15 04:00N 51°58' E 003°40'4 0.5
2018-Feb-14 19:25N 51°56' E 003°34'16 8.6
2018-Feb-14 17:32N 51°53' E 003°08'110.5
2018-Feb-14 17:29N 51°53' E 003°07'1510.8
2018-Feb-14 16:07N 51°48' E 002°45'210.9
2018-Feb-14 15:56N 51°47' E 002°43'511.2
2018-Feb-14 15:30N 51°44' E 002°36'611.8
2018-Feb-14 14:58N 51°40' E 002°29'612.1
2018-Feb-14 14:30N 51°35' E 002°23'612.4
2018-Feb-14 14:00N 51°31' E 002°16'612.7
2018-Feb-14 13:30N 51°26' E 002°10'611.9
2018-Feb-14 13:01N 51°20' E 002°07'611.9
2018-Feb-14 12:30N 51°15' E 002°06'713.3
2018-Feb-14 12:01N 51°11' E 001°57'713.8
2018-Feb-14 11:30N 51°07' E 001°48'815.4
2018-Feb-14 11:00N 51°02' E 001°39'815.5
2018-Feb-14 10:30N 50°56' E 001°31'714.5
2018-Feb-14 10:00N 50°50' E 001°25'714.4
2018-Feb-14 09:30N 50°43' E 001°23'813.6
2018-Feb-14 08:52N 50°37' E 001°13'5612.8
2018-Feb-14 04:28N 50°16' W 000°09'511.4
2018-Feb-14 04:01N 50°14' W 000°17'611.0
2018-Feb-14 03:28N 50°13' W 000°26'510.6
2018-Feb-14 03:00N 50°11' W 000°33'510.3
2018-Feb-14 02:28N 50°09' W 000°41'8 9.2
2018-Feb-14 01:36N 50°03' W 000°48'311.5
2018-Feb-14 01:21N 50°00' W 000°48'411.7
2018-Feb-14 01:00N 49°56' W 000°48'611.6
2018-Feb-14 00:30N 49°50' W 000°48'611.5
2018-Feb-14 00:01N 49°45' W 000°45'612.4
2018-Feb-13 23:31N 49°42' W 000°37'611.7
2018-Feb-13 23:01N 49°38' W 000°29'510.9
2018-Feb-13 22:31N 49°35' W 000°22'510.4
2018-Feb-13 22:01N 49°33' W 000°15'510.1
2018-Feb-13 21:31N 49°30' W 000°09'5 9.8
2018-Feb-13 21:01N 49°28' W 000°02'5 9.7
2018-Feb-13 20:31N 49°26' E 000°05'510.8
2018-Feb-13 20:00N 49°26' E 000°13'510.4
2018-Feb-13 19:30N 49°26' E 000°21'5 9.9
2018-Feb-13 19:00N 49°28' E 000°28'3 5.8
2018-Feb-13 18:30N 49°28' E 000°32'0 0.1
2018-Feb-13 17:58N 49°28' E 000°33'0 0.0
2018-Feb-13 17:28N 49°28' E 000°33'0 0.0
2018-Feb-13 16:58N 49°28' E 000°33'0 0.0
2018-Feb-13 16:28N 49°28' E 000°33'0 0.0
2018-Feb-13 15:58N 49°28' E 000°33'0 0.0
2018-Feb-13 15:28N 49°28' E 000°33'0 0.0
2018-Feb-13 14:58N 49°28' E 000°33'0 0.0
2018-Feb-13 14:28N 49°28' E 000°33'0 0.0
2018-Feb-13 13:58N 49°28' E 000°33'0 0.0
2018-Feb-13 13:28N 49°28' E 000°33'0 0.0
2018-Feb-13 12:58N 49°28' E 000°33'0 0.0
2018-Feb-13 12:28N 49°28' E 000°33'0 0.0
2018-Feb-13 11:58N 49°28' E 000°33'0 0.0
2018-Feb-13 11:28N 49°28' E 000°33'0 0.0
2018-Feb-13 10:58N 49°28' E 000°33'0 0.0
2018-Feb-13 10:28N 49°28' E 000°33'0 0.0
2018-Feb-13 09:58N 49°28' E 000°33'0 0.0
2018-Feb-13 09:28N 49°28' E 000°33'0 0.0
2018-Feb-13 08:58N 49°28' E 000°33'0 0.0
2018-Feb-13 08:28N 49°28' E 000°33'0 0.0
2018-Feb-13 07:58N 49°28' E 000°33'0 0.0
2018-Feb-13 07:28N 49°28' E 000°33'0 0.0
2018-Feb-13 06:58N 49°28' E 000°33'0 0.0
2018-Feb-13 06:28N 49°28' E 000°33'0 0.0
2018-Feb-13 05:58N 49°28' E 000°33'0 0.0
2018-Feb-13 05:28N 49°28' E 000°33'0 0.0
2018-Feb-13 04:58N 49°28' E 000°33'0 0.0
2018-Feb-13 04:28N 49°28' E 000°33'0 0.0
2018-Feb-13 03:55N 49°28' E 000°33'0 0.0
2018-Feb-13 03:25N 49°28' E 000°33'0 0.0
2018-Feb-13 02:55N 49°28' E 000°33'0 0.0
2018-Feb-13 02:28N 49°28' E 000°33'0 0.0
2018-Feb-13 01:58N 49°28' E 000°33'0 0.0
2018-Feb-13 01:28N 49°28' E 000°33'0 0.0
2018-Feb-13 00:58N 49°28' E 000°33'0 0.0
2018-Feb-13 00:28N 49°28' E 000°33'0 0.0
2018-Feb-12 23:58N 49°28' E 000°33'0 0.0
2018-Feb-12 23:28N 49°28' E 000°33'0 0.0
2018-Feb-12 22:58N 49°28' E 000°33'0 0.0
2018-Feb-12 22:28N 49°28' E 000°33'0 0.0
2018-Feb-12 21:58N 49°28' E 000°33'0 0.0
2018-Feb-12 21:28N 49°28' E 000°33'0 0.0
2018-Feb-12 20:58N 49°28' E 000°33'0 0.0
2018-Feb-12 20:28N 49°28' E 000°33'0 0.0
2018-Feb-12 19:58N 49°28' E 000°33'0 0.0
2018-Feb-12 19:28N 49°28' E 000°33'0 0.0
2018-Feb-12 18:58N 49°28' E 000°33'0 0.0
2018-Feb-12 18:28N 49°28' E 000°33'0 0.5
2018-Feb-12 18:00N 49°28' E 000°33'3 6.1
2018-Feb-12 17:30N 49°29' E 000°28'612.4
2018-Feb-12 17:00N 49°26' E 000°19'611.7
2018-Feb-12 16:31N 49°26' E 000°10'611.7
2018-Feb-12 16:00N 49°27' E 000°02'4 8.3
2018-Feb-12 15:30N 49°28' W 000°05'1 1.3
2018-Feb-12 15:00N 49°28' W 000°06'0 0.1
2018-Feb-12 14:30N 49°28' W 000°06'0 0.0
2018-Feb-12 14:00N 49°28' W 000°06'0 0.0
2018-Feb-12 13:30N 49°28' W 000°06'0 0.3
2018-Feb-12 13:00N 49°28' W 000°06'0 0.0
2018-Feb-12 12:30N 49°28' W 000°06'0 0.1
2018-Feb-12 12:00N 49°28' W 000°06'0 0.1
2018-Feb-12 11:30N 49°28' W 000°06'0 0.2
2018-Feb-12 11:00N 49°28' W 000°06'0 0.2
2018-Feb-12 10:30N 49°28' W 000°06'2 4.9
2018-Feb-12 10:01N 49°30' W 000°08'611.7
2018-Feb-12 09:31N 49°31' W 000°17'612.1
2018-Feb-12 09:00N 49°34' W 000°25'612.3
2018-Feb-12 08:30N 49°37' W 000°33'612.5
2018-Feb-12 08:00N 49°40' W 000°42'612.6
2018-Feb-12 07:30N 49°43' W 000°50'612.5
2018-Feb-12 07:00N 49°46' W 000°59'612.7
2018-Feb-12 06:30N 49°50' W 001°07'713.0
2018-Feb-12 06:01N 49°53' W 001°16'612.9
2018-Feb-12 05:30N 49°54' W 001°26'713.2
2018-Feb-12 05:01N 49°54' W 001°36'713.1
2018-Feb-12 04:31N 49°54' W 001°46'612.9
2018-Feb-12 04:00N 49°54' W 001°56'612.1
2018-Feb-12 03:31N 49°54' W 002°05'611.3
2018-Feb-12 03:00N 49°54' W 002°14'510.9
2018-Feb-12 02:30N 49°53' W 002°23'510.7
2018-Feb-12 02:00N 49°53' W 002°31'510.3
2018-Feb-12 01:30N 49°51' W 002°39'510.2
2018-Feb-12 01:00N 49°50' W 002°46'102 9.8
2018-Feb-11 14:38N 49°01' W 005°03'410.4
2018-Feb-11 14:14N 48°58' W 005°08'210.3
2018-Feb-11 14:01N 48°57' W 005°12'610.3
2018-Feb-11 13:26N 48°54' W 005°19'510.5
2018-Feb-11 13:00N 48°52' W 005°25'510.7
2018-Feb-11 12:30N 48°48' W 005°31'510.3
2018-Feb-11 11:59N 48°44' W 005°37'510.2
2018-Feb-11 11:29N 48°41' W 005°42'5 9.6
2018-Feb-11 11:00N 48°37' W 005°46'5 9.5
2018-Feb-11 10:26N 48°32' W 005°50'7 9.5
2018-Feb-11 09:43N 48°26' W 005°55'8 9.7
2018-Feb-11 08:52N 48°19' W 006°01'  

Dump ship's entire track history